createdAt,value
2018-04-29T00:00:53.066Z,82.95
2018-04-29T00:01:53.063Z,82.63
2018-04-29T00:02:53.059Z,83.29
2018-04-29T00:03:53.055Z,82.72
2018-04-29T00:04:53.045Z,83.39
2018-04-29T00:05:53.044Z,84.06
2018-04-29T00:06:53.037Z,84.16
2018-04-29T00:07:53.033Z,84.25
2018-04-29T00:08:53.029Z,84.06
2018-04-29T00:09:53.023Z,84.44
2018-04-29T00:10:53.020Z,84.53
2018-04-29T00:11:53.019Z,85.21
2018-04-29T00:12:53.010Z,85.21
2018-04-29T00:13:53.006Z,85.39
2018-04-29T00:14:53.008Z,85.21
2018-04-29T00:15:53.003Z,85.49
2018-04-29T00:16:52.992Z,85.49
2018-04-29T00:17:52.991Z,85.97
2018-04-29T00:18:52.987Z,85.87
2018-04-29T00:19:52.979Z,86.54
2018-04-29T00:20:52.979Z,86.82
2018-04-29T00:21:52.981Z,87.11
2018-04-29T00:22:52.966Z,87.11
2018-04-29T00:23:52.962Z,86.88
2018-04-29T00:24:52.958Z,87.07
2018-04-29T00:25:52.953Z,87.83
2018-04-29T00:26:52.949Z,87.45
2018-04-29T00:27:52.944Z,88.02
2018-04-29T00:28:52.939Z,88.40
2018-04-29T00:29:52.934Z,87.54
2018-04-29T00:30:52.929Z,87.45
2018-04-29T00:31:52.925Z,88.12
2018-04-29T00:32:52.963Z,88.69
2018-04-29T00:33:52.919Z,88.78
2018-04-29T00:34:52.916Z,88.31
2018-04-29T00:35:52.910Z,88.31
2018-04-29T00:36:52.901Z,88.21
2018-04-29T00:37:52.896Z,88.69
2018-04-29T00:38:52.892Z,88.69
2018-04-29T00:39:52.889Z,89.17
2018-04-29T00:40:52.882Z,88.88
2018-04-29T00:41:52.922Z,88.88
2018-04-29T00:42:52.872Z,88.98
2018-04-29T00:43:52.868Z,89.54
2018-04-29T00:44:52.863Z,89.54
2018-04-29T00:45:52.857Z,89.54
2018-04-29T00:46:52.857Z,89.45
2018-04-29T00:47:52.853Z,89.83
2018-04-29T00:48:52.845Z,89.93
2018-04-29T00:49:52.838Z,89.93
2018-04-29T00:50:52.886Z,89.74
2018-04-29T00:51:52.829Z,89.79
2018-04-29T00:52:52.827Z,90.03
2018-04-29T00:53:52.824Z,89.79
2018-04-29T00:54:52.815Z,90.64
2018-04-29T00:55:52.809Z,90.26
2018-04-29T00:56:52.804Z,90.55
2018-04-29T00:57:52.800Z,90.26
2018-04-29T00:58:52.794Z,90.17
2018-04-29T00:59:52.789Z,90.45
2018-04-29T01:00:52.785Z,91.22
2018-04-29T01:01:52.779Z,91.31
2018-04-29T01:02:52.774Z,90.64
2018-04-29T01:03:52.769Z,91.03
2018-04-29T01:04:52.768Z,91.03
2018-04-29T01:05:52.790Z,90.74
2018-04-29T01:06:52.758Z,90.74
2018-04-29T01:07:52.756Z,91.13
2018-04-29T01:08:52.742Z,91.31
2018-04-29T01:09:52.737Z,91.13
2018-04-29T01:10:52.732Z,91.60
2018-04-29T01:11:52.728Z,91.69
2018-04-29T01:12:52.724Z,91.98
2018-04-29T01:13:52.717Z,91.98
2018-04-29T01:14:52.712Z,92.13
2018-04-29T01:15:52.707Z,92.03
2018-04-29T01:16:52.701Z,92.41
2018-04-29T01:17:52.696Z,92.69
2018-04-29T01:18:52.695Z,92.13
2018-04-29T01:19:52.690Z,93.17
2018-04-29T01:20:52.680Z,93.17
2018-04-29T01:21:52.674Z,93.17
2018-04-29T01:22:52.671Z,92.98
2018-04-29T01:23:52.667Z,92.89
2018-04-29T01:24:52.664Z,92.79
2018-04-29T01:25:52.658Z,92.89
2018-04-29T01:26:52.649Z,93.65
2018-04-29T01:27:52.643Z,93.65
2018-04-29T01:28:52.642Z,93.46
2018-04-29T01:29:52.633Z,93.27
2018-04-29T01:30:52.627Z,93.37
2018-04-29T01:31:52.626Z,93.55
2018-04-29T01:32:52.615Z,93.55
2018-04-29T01:33:52.611Z,93.27
2018-04-29T01:34:52.605Z,93.74
2018-04-29T01:35:52.601Z,93.46
2018-04-29T01:36:52.597Z,93.51
2018-04-29T01:37:52.593Z,92.50
2018-04-29T01:38:52.584Z,92.69
2018-04-29T01:39:52.578Z,92.79
2018-04-29T01:40:52.572Z,92.41
2018-04-29T01:41:52.567Z,92.41
2018-04-29T01:42:52.561Z,92.22
2018-04-29T01:43:52.555Z,92.50
2018-04-29T01:44:52.555Z,92.94
2018-04-29T01:45:52.549Z,92.74
2018-04-29T01:46:52.539Z,92.84
2018-04-29T01:47:52.533Z,93.51
2018-04-29T01:48:52.532Z,93.70
2018-04-29T01:49:52.527Z,93.03
2018-04-29T01:50:52.516Z,93.51
2018-04-29T01:51:52.512Z,93.22
2018-04-29T01:52:52.505Z,93.32
2018-04-29T01:53:52.501Z,93.70
2018-04-29T01:54:52.495Z,93.60
2018-04-29T01:55:52.489Z,94.17
2018-04-29T01:56:52.488Z,93.89
2018-04-29T01:57:52.480Z,93.70
2018-04-29T01:58:52.476Z,94.17
2018-04-29T01:59:52.472Z,94.46
2018-04-29T02:00:52.459Z,94.46
2018-04-29T02:01:52.454Z,95.03
2018-04-29T02:02:52.458Z,95.03
2018-04-29T02:03:52.449Z,95.41
2018-04-29T02:04:52.437Z,95.12
2018-04-29T02:05:52.435Z,95.22
2018-04-29T02:06:52.435Z,95.70
2018-04-29T02:07:52.422Z,95.84
2018-04-29T02:08:52.414Z,95.27
2018-04-29T02:09:52.409Z,95.27
2018-04-29T02:10:52.403Z,95.17
2018-04-29T02:11:52.397Z,94.89
2018-04-29T02:12:52.391Z,95.17
2018-04-29T02:13:52.387Z,94.60
2018-04-29T02:14:52.380Z,94.51
2018-04-29T02:15:52.374Z,94.60
2018-04-29T02:16:52.372Z,94.13
2018-04-29T02:17:52.366Z,93.93
2018-04-29T02:18:52.356Z,93.84
2018-04-29T02:19:52.351Z,92.98
2018-04-29T02:20:52.349Z,93.51
2018-04-29T02:21:52.343Z,93.51
2018-04-29T02:22:52.334Z,92.84
2018-04-29T02:23:52.328Z,92.84
2018-04-29T02:24:52.321Z,92.03
2018-04-29T02:25:52.316Z,92.17
2018-04-29T02:26:52.310Z,92.17
2018-04-29T02:27:52.304Z,92.27
2018-04-29T02:28:52.298Z,92.36
2018-04-29T02:29:52.292Z,92.17
2018-04-29T02:30:52.290Z,91.88
2018-04-29T02:31:52.286Z,92.03
2018-04-29T02:32:52.274Z,91.94
2018-04-29T02:33:52.270Z,92.22
2018-04-29T02:34:52.269Z,92.22
2018-04-29T02:35:52.262Z,92.13
2018-04-29T02:36:52.251Z,92.13
2018-04-29T02:37:52.246Z,92.13
2018-04-29T02:38:52.240Z,91.94
2018-04-29T02:39:52.235Z,92.41
2018-04-29T02:40:52.227Z,92.69
2018-04-29T02:41:52.221Z,92.60
2018-04-29T02:42:52.224Z,92.32
2018-04-29T02:43:52.215Z,92.50
2018-04-29T02:44:52.203Z,92.41
2018-04-29T02:45:52.224Z,92.69
2018-04-29T02:46:52.192Z,92.50
2018-04-29T02:47:52.187Z,92.13
2018-04-29T02:48:52.181Z,92.60
2018-04-29T02:49:52.174Z,92.22
2018-04-29T02:50:52.173Z,92.22
2018-04-29T02:51:52.168Z,91.74
2018-04-29T02:52:52.155Z,91.84
2018-04-29T02:53:52.151Z,91.55
2018-04-29T02:54:52.148Z,91.60
2018-04-29T02:55:52.143Z,91.51
2018-04-29T02:56:52.131Z,91.60
2018-04-29T02:57:52.126Z,91.22
2018-04-29T02:58:52.121Z,91.99
2018-04-29T02:59:52.114Z,92.27
2018-04-29T03:00:52.112Z,92.55
2018-04-29T03:01:52.106Z,93.03
2018-04-29T03:02:52.096Z,92.74
2018-04-29T03:03:52.093Z,93.13
2018-04-29T03:04:52.084Z,93.41
2018-04-29T03:05:52.081Z,93.37
2018-04-29T03:06:52.071Z,92.79
2018-04-29T03:07:52.067Z,93.46
2018-04-29T03:08:52.059Z,93.65
2018-04-29T03:09:52.054Z,94.42
2018-04-29T03:10:52.046Z,95.27
2018-04-29T03:11:52.041Z,94.70
2018-04-29T03:12:52.039Z,95.36
2018-04-29T03:13:52.033Z,95.17
2018-04-29T03:14:52.030Z,95.84
2018-04-29T03:15:52.020Z,95.46
2018-04-29T03:16:52.015Z,96.41
2018-04-29T03:17:52.003Z,96.31
2018-04-29T03:18:51.997Z,96.41
2018-04-29T03:19:51.991Z,96.31
2018-04-29T03:20:51.984Z,96.41
2018-04-29T03:21:51.979Z,96.60
2018-04-29T03:22:51.973Z,96.51
2018-04-29T03:23:51.966Z,96.51
2018-04-29T03:24:51.959Z,96.79
2018-04-29T03:25:51.953Z,96.31
2018-04-29T03:26:51.951Z,96.31
2018-04-29T03:27:51.946Z,96.70
2018-04-29T03:28:51.934Z,96.22
2018-04-29T03:29:51.927Z,96.55
2018-04-29T03:30:51.923Z,96.46
2018-04-29T03:31:51.917Z,96.65
2018-04-29T03:32:51.913Z,96.55
2018-04-29T03:33:51.906Z,95.60
2018-04-29T03:34:51.897Z,95.70
2018-04-29T03:35:51.890Z,95.89
2018-04-29T03:36:51.885Z,95.60
2018-04-29T03:37:51.878Z,95.32
2018-04-29T03:38:51.872Z,95.32
2018-04-29T03:39:51.865Z,95.51
2018-04-29T03:40:51.858Z,95.41
2018-04-29T03:41:51.852Z,95.12
2018-04-29T03:42:51.902Z,94.84
2018-04-29T03:43:51.840Z,94.56
2018-04-29T03:44:51.836Z,94.08
2018-04-29T03:45:51.832Z,94.17
2018-04-29T03:46:51.820Z,93.89
2018-04-29T03:47:51.814Z,94.08
2018-04-29T03:48:51.807Z,94.08
2018-04-29T03:49:51.801Z,93.51
2018-04-29T03:50:51.794Z,93.60
2018-04-29T03:51:51.788Z,93.98
2018-04-29T03:52:51.786Z,94.17
2018-04-29T03:53:51.779Z,94.27
2018-04-29T03:54:51.770Z,93.41
2018-04-29T03:55:51.766Z,93.98
2018-04-29T03:56:51.761Z,93.22
2018-04-29T03:57:51.756Z,93.32
2018-04-29T03:58:51.743Z,93.32
2018-04-29T03:59:51.737Z,93.51
2018-04-29T04:00:51.731Z,93.32
2018-04-29T04:01:51.745Z,93.51
2018-04-29T04:02:51.740Z,92.74
2018-04-29T04:03:51.712Z,93.60
2018-04-29T04:04:51.705Z,93.22
2018-04-29T04:05:51.699Z,93.03
2018-04-29T04:06:51.697Z,93.74
2018-04-29T04:07:51.699Z,93.60
2018-04-29T04:08:51.680Z,93.55
2018-04-29T04:09:51.727Z,93.70
2018-04-29T04:10:51.672Z,93.93
2018-04-29T04:11:51.667Z,93.37
2018-04-29T04:12:51.656Z,93.55
2018-04-29T04:13:51.649Z,93.46
2018-04-29T04:14:51.645Z,93.17
2018-04-29T04:15:51.641Z,92.79
2018-04-29T04:16:51.631Z,93.08
2018-04-29T04:17:51.626Z,93.08
2018-04-29T04:18:51.623Z,92.41
2018-04-29T04:19:51.613Z,91.65
2018-04-29T04:20:51.606Z,92.13
2018-04-29T04:21:51.601Z,92.13
2018-04-29T04:22:51.595Z,91.84
2018-04-29T04:23:51.589Z,92.22
2018-04-29T04:24:51.586Z,91.27
2018-04-29T04:25:51.582Z,92.22
2018-04-29T04:26:51.570Z,92.22
2018-04-29T04:27:51.564Z,91.55
2018-04-29T04:28:51.562Z,91.94
2018-04-29T04:29:51.556Z,91.55
2018-04-29T04:30:51.546Z,91.84
2018-04-29T04:31:51.541Z,91.08
2018-04-29T04:32:51.533Z,90.93
2018-04-29T04:33:51.529Z,91.03
2018-04-29T04:34:51.523Z,91.13
2018-04-29T04:35:51.516Z,91.22
2018-04-29T04:36:51.510Z,91.03
2018-04-29T04:37:51.505Z,90.74
2018-04-29T04:38:51.503Z,91.03
2018-04-29T04:39:51.497Z,91.41
2018-04-29T04:40:51.486Z,90.84
2018-04-29T04:41:51.481Z,91.13
2018-04-29T04:42:51.480Z,90.84
2018-04-29T04:43:51.474Z,91.22
2018-04-29T04:44:51.462Z,91.03
2018-04-29T04:45:51.455Z,91.13
2018-04-29T04:46:51.451Z,90.84
2018-04-29T04:47:51.445Z,90.59
2018-04-29T04:48:51.439Z,89.64
2018-04-29T04:49:51.434Z,89.17
2018-04-29T04:50:51.433Z,88.64
2018-04-29T04:51:51.427Z,87.59
2018-04-29T04:52:51.416Z,86.39
2018-04-29T04:53:51.412Z,85.67
2018-04-29T04:54:51.406Z,84.14
2018-04-29T04:55:51.404Z,83.13
2018-04-29T04:56:51.396Z,82.56
2018-04-29T04:57:51.390Z,81.65
2018-04-29T04:58:51.385Z,80.79
2018-04-29T04:59:51.383Z,80.40
2018-04-29T05:00:51.378Z,79.77
2018-04-29T05:01:51.372Z,79.43
2018-04-29T05:02:51.372Z,78.70
2018-04-29T05:03:51.368Z,76.98
2018-04-29T05:04:51.360Z,75.68
2018-04-29T05:05:51.356Z,75.20
2018-04-29T05:06:51.352Z,74.52
2018-04-29T05:07:51.349Z,73.66
2018-04-29T05:08:51.349Z,73.61
2018-04-29T05:09:51.346Z,73.66
2018-04-29T05:10:51.339Z,73.09
2018-04-29T05:11:51.337Z,73.57
2018-04-29T05:12:51.333Z,73.38
2018-04-29T05:13:51.331Z,73.24
2018-04-29T05:14:51.329Z,73.50
2018-04-29T05:15:51.327Z,74.26
2018-04-29T05:16:51.324Z,76.04
2018-04-29T05:17:51.322Z,76.96
2018-04-29T05:18:51.318Z,78.20
2018-04-29T05:19:51.316Z,79.02
2018-04-29T05:20:51.317Z,79.69
2018-04-29T05:21:51.315Z,80.93
2018-04-29T05:22:51.313Z,81.41
2018-04-29T05:23:51.310Z,81.60
2018-04-29T05:24:51.302Z,82.37
2018-04-29T05:25:51.301Z,82.65
2018-04-29T05:26:51.298Z,82.42
2018-04-29T05:27:51.295Z,82.71
2018-04-29T05:28:51.291Z,83.47
2018-04-29T05:29:51.292Z,82.90
2018-04-29T05:30:51.286Z,83.57
2018-04-29T05:31:51.283Z,84.91
2018-04-29T05:32:51.283Z,85.29
2018-04-29T05:33:51.277Z,85.77
2018-04-29T05:34:51.278Z,85.91
2018-04-29T05:35:51.275Z,86.72
2018-04-29T05:36:51.267Z,87.10
2018-04-29T05:37:51.263Z,87.29
2018-04-29T05:38:51.260Z,87.63
2018-04-29T05:39:51.257Z,87.35
2018-04-29T05:40:51.257Z,87.06
2018-04-29T05:41:51.256Z,86.39
2018-04-29T05:42:51.246Z,86.58
2018-04-29T05:43:51.243Z,86.58
2018-04-29T05:44:51.238Z,86.96
2018-04-29T05:45:51.235Z,86.77
2018-04-29T05:46:51.233Z,86.96
2018-04-29T05:47:51.229Z,86.58
2018-04-29T05:48:51.223Z,86.30
2018-04-29T05:49:51.242Z,85.63
2018-04-29T05:50:51.218Z,85.63
2018-04-29T05:51:51.214Z,85.58
2018-04-29T05:52:51.213Z,85.44
2018-04-29T05:53:51.210Z,85.48
2018-04-29T05:54:51.203Z,85.38
2018-04-29T05:55:51.200Z,85.38
2018-04-29T05:56:51.195Z,85.19
2018-04-29T05:57:51.191Z,85.19
2018-04-29T05:58:51.188Z,85.48
2018-04-29T05:59:51.184Z,85.38
2018-04-29T06:00:51.183Z,84.52
2018-04-29T06:01:51.180Z,83.95
2018-04-29T06:02:51.235Z,83.28
2018-04-29T06:03:51.174Z,83.23
2018-04-29T06:04:51.170Z,82.65
2018-04-29T06:05:51.166Z,82.37
2018-04-29T06:06:51.159Z,82.31
2018-04-29T06:07:51.156Z,81.36
2018-04-29T06:08:51.151Z,81.84
2018-04-29T06:09:51.148Z,80.92
2018-04-29T06:10:51.147Z,79.81
2018-04-29T06:11:51.142Z,79.28
2018-04-29T06:12:51.138Z,77.84
2018-04-29T06:13:51.136Z,77.23
2018-04-29T06:14:51.138Z,76.50
2018-04-29T06:15:51.135Z,75.73
2018-04-29T06:16:51.127Z,75.83
2018-04-29T06:17:51.134Z,75.12
2018-04-29T06:18:51.127Z,75.70
2018-04-29T06:19:51.125Z,75.85
2018-04-29T06:20:51.118Z,76.14
2018-04-29T06:21:51.120Z,76.42
2018-04-29T06:22:51.114Z,76.52
2018-04-29T06:23:51.111Z,76.71
2018-04-29T06:24:51.108Z,77.19
2018-04-29T06:25:51.108Z,77.38
2018-04-29T06:26:51.107Z,78.24
2018-04-29T06:27:51.102Z,79.20
2018-04-29T06:28:51.098Z,79.44
2018-04-29T06:29:51.096Z,80.02
2018-04-29T06:30:51.095Z,80.50
2018-04-29T06:31:51.166Z,80.40
2018-04-29T06:32:51.093Z,80.98
2018-04-29T06:33:51.090Z,82.31
2018-04-29T06:34:51.083Z,82.54
2018-04-29T06:35:51.080Z,82.83
2018-04-29T06:36:51.082Z,82.54
2018-04-29T06:37:51.080Z,82.93
2018-04-29T06:38:51.139Z,83.06
2018-04-29T06:39:51.070Z,83.06
2018-04-29T06:40:51.066Z,83.36
2018-04-29T06:41:51.064Z,82.59
2018-04-29T06:42:51.062Z,82.54
2018-04-29T06:43:51.059Z,83.12
2018-04-29T06:44:51.061Z,82.93
2018-04-29T06:45:51.055Z,83.50
2018-04-29T06:46:51.079Z,84.46
2018-04-29T06:47:51.054Z,85.22
2018-04-29T06:48:51.046Z,85.80
2018-04-29T06:49:51.045Z,86.57
2018-04-29T06:50:51.045Z,86.76
2018-04-29T06:51:51.043Z,87.14
2018-04-29T06:52:51.035Z,87.23
2018-04-29T06:53:51.037Z,87.81
2018-04-29T06:54:51.030Z,88.15
2018-04-29T06:55:51.031Z,88.43
2018-04-29T06:56:51.026Z,88.72
2018-04-29T06:57:51.023Z,88.24
2018-04-29T06:58:51.025Z,88.91
2018-04-29T06:59:51.023Z,89.10
2018-04-29T07:00:51.086Z,89.39
2018-04-29T07:01:51.012Z,89.20
2018-04-29T07:02:51.011Z,89.39
2018-04-29T07:03:51.007Z,90.34
2018-04-29T07:04:51.007Z,90.16
2018-04-29T07:05:51.001Z,90.44
2018-04-29T07:06:50.998Z,90.82
2018-04-29T07:07:51.002Z,91.30
2018-04-29T07:08:50.993Z,91.54
2018-04-29T07:09:50.995Z,92.16
2018-04-29T07:10:50.991Z,92.11
2018-04-29T07:11:50.989Z,92.40
2018-04-29T07:12:50.981Z,91.83
2018-04-29T07:13:50.978Z,92.97
2018-04-29T07:14:50.975Z,93.07
2018-04-29T07:15:50.973Z,94.02
2018-04-29T07:16:50.973Z,93.55
2018-04-29T07:17:50.971Z,94.22
2018-04-29T07:18:50.965Z,93.65
2018-04-29T07:19:51.013Z,94.07
2018-04-29T07:20:50.957Z,93.88
2018-04-29T07:21:50.954Z,93.69
2018-04-29T07:22:50.951Z,94.12
2018-04-29T07:23:50.948Z,93.45
2018-04-29T07:24:50.945Z,93.65
2018-04-29T07:25:50.941Z,93.84
2018-04-29T07:26:50.940Z,93.74
2018-04-29T07:27:50.934Z,93.36
2018-04-29T07:28:50.935Z,93.93
2018-04-29T07:29:50.932Z,93.93
2018-04-29T07:30:50.929Z,94.22
2018-04-29T07:31:50.927Z,93.16
2018-04-29T07:32:50.918Z,94.22
2018-04-29T07:33:50.915Z,92.97
2018-04-29T07:34:50.916Z,93.36
2018-04-29T07:35:50.909Z,93.36
2018-04-29T07:36:50.905Z,93.31
2018-04-29T07:37:50.979Z,93.60
2018-04-29T07:38:50.900Z,94.26
2018-04-29T07:39:50.973Z,94.36
2018-04-29T07:40:50.893Z,94.26
2018-04-29T07:41:50.889Z,94.36
2018-04-29T07:42:50.891Z,94.07
2018-04-29T07:43:50.889Z,93.88
2018-04-29T07:44:50.880Z,93.74
2018-04-29T07:45:50.876Z,93.74
2018-04-29T07:46:50.874Z,93.30
2018-04-29T07:47:50.873Z,92.73
2018-04-29T07:48:50.872Z,92.21
2018-04-29T07:49:50.870Z,91.15
2018-04-29T07:50:50.863Z,89.66
2018-04-29T07:51:50.863Z,88.99
2018-04-29T07:52:50.860Z,87.70
2018-04-29T07:53:50.856Z,88.31
2018-04-29T07:54:50.903Z,86.21
2018-04-29T07:55:50.853Z,85.53
2018-04-29T07:56:50.852Z,84.48
2018-04-29T07:57:50.850Z,83.81
2018-04-29T07:58:50.849Z,83.33
2018-04-29T07:59:50.847Z,83.58
2018-04-29T08:00:50.876Z,83.00
2018-04-29T08:01:50.850Z,83.72
2018-04-29T08:02:50.845Z,82.86
2018-04-29T08:03:50.844Z,83.59
2018-04-29T08:04:50.842Z,83.11
2018-04-29T08:05:50.843Z,84.16
2018-04-29T08:06:50.878Z,84.45
2018-04-29T08:07:50.839Z,85.21
2018-04-29T08:08:50.842Z,85.88
2018-04-29T08:09:50.841Z,85.08
2018-04-29T08:10:50.835Z,85.65
2018-04-29T08:11:50.836Z,85.08
2018-04-29T08:12:50.837Z,85.08
2018-04-29T08:13:50.837Z,86.13
2018-04-29T08:14:50.831Z,86.04
2018-04-29T08:15:50.830Z,85.88
2018-04-29T08:16:50.828Z,85.55
2018-04-29T08:17:50.826Z,86.61
2018-04-29T08:18:50.826Z,87.23
2018-04-29T08:19:50.823Z,87.13
2018-04-29T08:20:50.820Z,86.12
2018-04-29T08:21:50.820Z,86.21
2018-04-29T08:22:50.826Z,86.31
2018-04-29T08:23:50.821Z,86.21
2018-04-29T08:24:50.815Z,85.93
2018-04-29T08:25:50.813Z,85.35
2018-04-29T08:26:50.817Z,85.16
2018-04-29T08:27:50.815Z,85.16
2018-04-29T08:28:50.809Z,84.91
2018-04-29T08:29:50.808Z,84.44
2018-04-29T08:30:50.807Z,84.44
2018-04-29T08:31:50.805Z,84.25
2018-04-29T08:32:50.804Z,85.01
2018-04-29T08:33:50.803Z,84.91
2018-04-29T08:34:50.803Z,85.21
2018-04-29T08:35:50.802Z,85.88
2018-04-29T08:36:50.799Z,85.88
2018-04-29T08:37:50.800Z,86.16
2018-04-29T08:38:50.797Z,86.45
2018-04-29T08:39:50.797Z,86.93
2018-04-29T08:40:50.799Z,86.74
2018-04-29T08:41:50.810Z,86.74
2018-04-29T08:42:50.793Z,87.79
2018-04-29T08:43:50.793Z,87.27
2018-04-29T08:44:50.796Z,87.84
2018-04-29T08:45:50.795Z,87.65
2018-04-29T08:46:50.789Z,88.56
2018-04-29T08:47:50.788Z,88.85
2018-04-29T08:48:50.787Z,89.81
2018-04-29T08:49:50.787Z,91.25
2018-04-29T08:50:50.784Z,91.34
2018-04-29T08:51:50.783Z,91.44
2018-04-29T08:52:50.781Z,91.58
2018-04-29T08:53:50.781Z,91.97
2018-04-29T08:54:50.836Z,92.59
2018-04-29T08:55:50.781Z,92.97
2018-04-29T08:56:50.774Z,93.26
2018-04-29T08:57:50.776Z,93.07
2018-04-29T08:58:50.779Z,93.74
2018-04-29T08:59:50.773Z,95.84
2018-04-29T09:00:50.766Z,95.84
2018-04-29T09:01:50.765Z,96.37
2018-04-29T09:02:50.763Z,96.94
2018-04-29T09:03:50.858Z,96.75
2018-04-29T09:04:50.762Z,96.80
2018-04-29T09:05:50.764Z,96.22
2018-04-29T09:06:50.755Z,95.51
2018-04-29T09:07:50.753Z,93.78
2018-04-29T09:08:50.750Z,93.11
2018-04-29T09:09:50.748Z,92.25
2018-04-29T09:10:50.746Z,92.63
2018-04-29T09:11:50.746Z,92.30
2018-04-29T09:12:50.747Z,91.72
2018-04-29T09:13:50.746Z,91.67
2018-04-29T09:14:50.740Z,89.70
2018-04-29T09:15:50.740Z,88.74
2018-04-29T09:16:50.815Z,87.21
2018-04-29T09:17:50.742Z,87.01
2018-04-29T09:18:50.736Z,86.34
2018-04-29T09:19:50.736Z,86.10
2018-04-29T09:20:50.735Z,85.33
2018-04-29T09:21:50.735Z,83.27
2018-04-29T09:22:50.736Z,83.37
2018-04-29T09:23:50.736Z,83.98
2018-04-29T09:24:50.737Z,83.51
2018-04-29T09:25:50.737Z,83.74
2018-04-29T09:26:50.737Z,83.49
2018-04-29T09:27:50.739Z,83.48
2018-04-29T09:28:50.733Z,81.50
2018-04-29T09:29:50.735Z,79.33
2018-04-29T09:30:50.740Z,76.75
2018-04-29T09:31:50.741Z,74.66
2018-04-29T09:32:50.738Z,71.84
2018-04-29T09:33:50.740Z,69.62
2018-04-29T09:34:50.743Z,67.11
2018-04-29T09:35:50.747Z,65.56
2018-04-29T09:36:50.754Z,65.17
2018-04-29T09:37:50.755Z,64.47
2018-04-29T09:38:50.760Z,64.04
2018-04-29T09:39:50.765Z,64.04
2018-04-29T09:40:50.771Z,64.59
2018-04-29T09:41:50.777Z,64.24
2018-04-29T09:42:50.784Z,63.92
2018-04-29T09:43:50.791Z,62.53
2018-04-29T09:44:50.802Z,62.66
2018-04-29T09:45:50.811Z,61.79
2018-04-29T09:46:50.814Z,61.59
2018-04-29T09:47:50.821Z,62.63
2018-04-29T09:48:50.834Z,62.01
2018-04-29T09:49:50.841Z,62.56
2018-04-29T09:50:50.846Z,63.98
2018-04-29T09:51:50.855Z,64.43
2018-04-29T09:52:50.862Z,64.69
2018-04-29T09:53:50.871Z,64.59
2018-04-29T09:54:50.879Z,64.37
2018-04-29T09:55:50.886Z,65.37
2018-04-29T09:56:50.893Z,66.01
2018-04-29T09:57:50.902Z,67.36
2018-04-29T09:58:50.913Z,67.43
2018-04-29T09:59:50.920Z,67.04
2018-04-29T10:00:50.951Z,67.81
2018-04-29T10:01:50.931Z,67.68
2018-04-29T10:02:50.941Z,68.80
2018-04-29T10:03:50.948Z,70.54
2018-04-29T10:04:50.950Z,69.57
2018-04-29T10:05:50.956Z,69.54
2018-04-29T10:06:50.962Z,69.79
2018-04-29T10:07:50.969Z,71.37
2018-04-29T10:08:50.973Z,70.70
2018-04-29T10:09:50.979Z,70.92
2018-04-29T10:10:50.991Z,70.00
2018-04-29T10:11:50.996Z,68.91
2018-04-29T10:12:50.999Z,66.82
2018-04-29T10:13:51.001Z,65.78
2018-04-29T10:14:51.008Z,65.20
2018-04-29T10:15:51.013Z,65.17
2018-04-29T10:16:51.017Z,64.47
2018-04-29T10:17:51.024Z,63.46
2018-04-29T10:18:51.084Z,62.17
2018-04-29T10:19:51.035Z,60.52
2018-04-29T10:20:51.041Z,60.39
2018-04-29T10:21:51.048Z,59.22
2018-04-29T10:22:51.060Z,56.79
2018-04-29T10:23:51.066Z,55.92
2018-04-29T10:24:51.068Z,54.44
2018-04-29T10:25:51.076Z,55.47
2018-04-29T10:26:51.085Z,55.50
2018-04-29T10:27:51.095Z,55.83
2018-04-29T10:28:51.104Z,56.13
2018-04-29T10:29:51.113Z,57.07
2018-04-29T10:30:51.117Z,56.71
2018-04-29T10:31:51.127Z,57.87
2018-04-29T10:32:51.237Z,57.88
2018-04-29T10:33:51.143Z,58.72
2018-04-29T10:34:51.152Z,59.59
2018-04-29T10:35:51.160Z,60.57
2018-04-29T10:36:51.168Z,62.02
2018-04-29T10:37:51.178Z,63.54
2018-04-29T10:38:51.184Z,64.89
2018-04-29T10:39:51.193Z,65.56
2018-04-29T10:40:51.203Z,66.82
2018-04-29T10:41:51.212Z,67.40
2018-04-29T10:42:51.220Z,67.23
2018-04-29T10:43:51.226Z,67.07
2018-04-29T10:44:51.227Z,66.97
2018-04-29T10:45:51.235Z,65.98
2018-04-29T10:46:51.246Z,66.36
2018-04-29T10:47:51.248Z,67.20
2018-04-29T10:48:51.253Z,67.52
2018-04-29T10:49:51.260Z,67.65
2018-04-29T10:50:51.266Z,66.78
2018-04-29T10:51:51.280Z,66.59
2018-04-29T10:52:51.278Z,66.91
2018-04-29T10:53:51.283Z,65.75
2018-04-29T10:54:51.293Z,66.36
2018-04-29T10:55:51.298Z,65.47
2018-04-29T10:56:51.298Z,65.47
2018-04-29T10:57:51.304Z,66.27
2018-04-29T10:58:51.357Z,65.75
2018-04-29T10:59:51.316Z,65.95
2018-04-29T11:00:51.326Z,66.14
2018-04-29T11:01:51.331Z,65.69
2018-04-29T11:02:51.335Z,65.95
2018-04-29T11:03:51.337Z,66.01
2018-04-29T11:04:51.343Z,65.63
2018-04-29T11:05:51.352Z,65.75
2018-04-29T11:06:51.352Z,66.49
2018-04-29T11:07:51.357Z,66.82
2018-04-29T11:08:51.361Z,67.52
2018-04-29T11:09:51.371Z,66.85
2018-04-29T11:10:51.371Z,66.08
2018-04-29T11:11:51.473Z,66.08
2018-04-29T11:12:51.385Z,66.24
2018-04-29T11:13:51.390Z,67.26
2018-04-29T11:14:51.392Z,67.36
2018-04-29T11:15:51.397Z,67.10
2018-04-29T11:16:51.399Z,66.62
2018-04-29T11:17:51.408Z,67.14
2018-04-29T11:18:51.408Z,66.27
2018-04-29T11:19:51.413Z,66.75
2018-04-29T11:20:51.422Z,65.72
2018-04-29T11:21:51.426Z,65.53
2018-04-29T11:22:51.426Z,66.17
2018-04-29T11:23:51.431Z,65.34
2018-04-29T11:24:51.438Z,65.34
2018-04-29T11:25:51.444Z,65.24
2018-04-29T11:26:51.443Z,66.01
2018-04-29T11:27:51.449Z,66.20
2018-04-29T11:28:51.452Z,65.11
2018-04-29T11:29:51.456Z,65.27
2018-04-29T11:30:51.460Z,66.72
2018-04-29T11:31:51.465Z,67.88
2018-04-29T11:32:51.468Z,67.23
2018-04-29T11:33:51.527Z,66.52
2018-04-29T11:34:51.480Z,66.91
2018-04-29T11:35:51.484Z,66.72
2018-04-29T11:36:51.485Z,67.20
2018-04-29T11:37:51.487Z,66.04
2018-04-29T11:38:51.495Z,66.72
2018-04-29T11:39:51.507Z,66.56
2018-04-29T11:40:51.499Z,66.27
2018-04-29T11:41:51.504Z,65.27
2018-04-29T11:42:51.506Z,65.43
2018-04-29T11:43:51.511Z,65.24
2018-04-29T11:44:51.517Z,66.27
2018-04-29T11:45:51.640Z,66.49
2018-04-29T11:46:51.521Z,66.17
2018-04-29T11:47:51.523Z,66.75
2018-04-29T11:48:51.526Z,66.69
2018-04-29T11:49:51.529Z,67.13
2018-04-29T11:50:51.533Z,66.97
2018-04-29T11:51:51.535Z,67.16
2018-04-29T11:52:51.543Z,67.36
2018-04-29T11:53:51.549Z,66.78
2018-04-29T11:54:51.544Z,67.26
2018-04-29T11:55:51.547Z,67.07
2018-04-29T11:56:51.553Z,65.66
2018-04-29T11:57:51.557Z,64.92
2018-04-29T11:58:51.557Z,63.67
2018-04-29T11:59:51.561Z,63.98
2018-04-29T12:00:51.565Z,63.60
2018-04-29T12:01:51.642Z,64.11
2018-04-29T12:02:51.568Z,64.40
2018-04-29T12:03:51.572Z,64.28
2018-04-29T12:04:51.574Z,64.08
2018-04-29T12:05:51.578Z,63.70
2018-04-29T12:06:51.586Z,64.47
2018-04-29T12:07:51.590Z,64.31
2018-04-29T12:08:51.588Z,63.66
2018-04-29T12:09:51.699Z,62.95
2018-04-29T12:10:51.599Z,62.08
2018-04-29T12:11:51.603Z,62.66
2018-04-29T12:12:51.602Z,61.41
2018-04-29T12:13:51.610Z,61.70
2018-04-29T12:14:51.611Z,61.83
2018-04-29T12:15:51.614Z,61.34
2018-04-29T12:16:51.617Z,61.63
2018-04-29T12:17:51.623Z,62.70
2018-04-29T12:18:51.630Z,63.08
2018-04-29T12:19:51.634Z,61.83
2018-04-29T12:20:51.632Z,62.34
2018-04-29T12:21:51.636Z,61.83
2018-04-29T12:22:51.641Z,62.34
2018-04-29T12:23:51.646Z,62.56
2018-04-29T12:24:51.649Z,62.05
2018-04-29T12:25:51.655Z,60.41
2018-04-29T12:26:51.666Z,60.18
2018-04-29T12:27:51.662Z,61.54
2018-04-29T12:28:51.670Z,61.34
2018-04-29T12:29:51.670Z,61.86
2018-04-29T12:30:51.680Z,61.27
2018-04-29T12:31:51.682Z,60.89
2018-04-29T12:32:51.681Z,61.22
2018-04-29T12:33:51.692Z,61.51
2018-04-29T12:34:51.691Z,62.47
2018-04-29T12:35:51.695Z,63.15
2018-04-29T12:36:51.702Z,63.34
2018-04-29T12:37:51.710Z,63.37
2018-04-29T12:38:51.711Z,64.24
2018-04-29T12:39:51.768Z,65.47
2018-04-29T12:40:51.715Z,67.00
2018-04-29T12:41:51.719Z,67.20
2018-04-29T12:42:51.726Z,67.36
2018-04-29T12:43:51.728Z,67.26
2018-04-29T12:44:51.730Z,67.58
2018-04-29T12:45:51.734Z,67.68
2018-04-29T12:46:51.739Z,68.35
2018-04-29T12:47:51.744Z,68.93
2018-04-29T12:48:51.748Z,68.16
2018-04-29T12:49:51.753Z,68.26
2018-04-29T12:50:51.755Z,68.45
2018-04-29T12:51:51.759Z,68.93
2018-04-29T12:52:51.760Z,68.49